sensor_id;sensor_type;location;lat;lon;timestamp;pressure;altitude;pressure_sealevel;temperature;humidity
5812;BME280;2932;52.400;9.558;2024-02-21T00:00:39;101448.47;;;13.11;72.01
5812;BME280;2932;52.400;9.558;2024-02-21T00:03:05;101457.50;;;13.08;71.61
5812;BME280;2932;52.400;9.558;2024-02-21T00:05:31;101443.13;;;12.73;72.55
5812;BME280;2932;52.400;9.558;2024-02-21T00:07:59;101453.44;;;13.50;71.31
5812;BME280;2932;52.400;9.558;2024-02-21T00:10:24;101438.63;;;13.13;72.15
5812;BME280;2932;52.400;9.558;2024-02-21T00:12:50;101442.72;;;13.16;71.89
5812;BME280;2932;52.400;9.558;2024-02-21T00:15:16;101443.34;;;13.00;72.13
5812;BME280;2932;52.400;9.558;2024-02-21T00:17:42;101427.25;;;13.39;71.40
5812;BME280;2932;52.400;9.558;2024-02-21T00:20:08;101419.97;;;13.47;71.28
5812;BME280;2932;52.400;9.558;2024-02-21T00:22:33;101445.72;;;12.90;71.73
5812;BME280;2932;52.400;9.558;2024-02-21T00:24:59;101427.69;;;13.17;71.79
5812;BME280;2932;52.400;9.558;2024-02-21T00:27:24;101422.81;;;12.93;72.13
5812;BME280;2932;52.400;9.558;2024-02-21T00:29:49;101419.44;;;12.87;72.96
5812;BME280;2932;52.400;9.558;2024-02-21T00:32:15;101412.44;;;13.02;72.49
5812;BME280;2932;52.400;9.558;2024-02-21T00:34:40;101410.50;;;13.15;72.36
5812;BME280;2932;52.400;9.558;2024-02-21T00:37:06;101396.78;;;13.18;72.17
5812;BME280;2932;52.400;9.558;2024-02-21T00:39:32;101405.28;;;13.13;72.04
5812;BME280;2932;52.400;9.558;2024-02-21T00:41:57;101396.34;;;12.95;71.66
5812;BME280;2932;52.400;9.558;2024-02-21T00:44:22;101388.78;;;13.17;71.76
5812;BME280;2932;52.400;9.558;2024-02-21T00:46:48;101378.34;;;12.81;71.83
5812;BME280;2932;52.400;9.558;2024-02-21T00:49:13;101380.19;;;13.22;71.69
5812;BME280;2932;52.400;9.558;2024-02-21T00:51:38;101373.13;;;13.24;70.79
5812;BME280;2932;52.400;9.558;2024-02-21T00:54:04;101372.13;;;13.17;71.05
5812;BME280;2932;52.400;9.558;2024-02-21T00:56:29;101372.00;;;13.50;70.60
5812;BME280;2932;52.400;9.558;2024-02-21T00:58:55;101367.84;;;12.86;71.15
5812;BME280;2932;52.400;9.558;2024-02-21T01:01:23;101361.47;;;13.31;70.86
5812;BME280;2932;52.400;9.558;2024-02-21T01:03:49;101362.09;;;13.03;71.29
5812;BME280;2932;52.400;9.558;2024-02-21T01:06:14;101367.25;;;13.26;71.08
5812;BME280;2932;52.400;9.558;2024-02-21T01:08:40;101368.63;;;13.32;70.66
5812;BME280;2932;52.400;9.558;2024-02-21T01:11:05;101365.84;;;13.20;70.06
5812;BME280;2932;52.400;9.558;2024-02-21T01:13:30;101346.41;;;13.56;69.91
5812;BME280;2932;52.400;9.558;2024-02-21T01:15:56;101362.47;;;12.69;71.36
5812;BME280;2932;52.400;9.558;2024-02-21T01:18:21;101367.28;;;12.93;71.17
5812;BME280;2932;52.400;9.558;2024-02-21T01:20:46;101353.13;;;13.19;70.72
5812;BME280;2932;52.400;9.558;2024-02-21T01:23:12;101348.84;;;13.33;69.95
5812;BME280;2932;52.400;9.558;2024-02-21T01:25:37;101339.47;;;13.38;69.58
5812;BME280;2932;52.400;9.558;2024-02-21T01:28:02;101333.19;;;13.29;69.92
5812;BME280;2932;52.400;9.558;2024-02-21T01:30:28;101332.97;;;13.22;70.37
5812;BME280;2932;52.400;9.558;2024-02-21T01:32:53;101340.97;;;13.35;70.13
5812;BME280;2932;52.400;9.558;2024-02-21T01:35:19;101338.50;;;13.22;69.66
5812;BME280;2932;52.400;9.558;2024-02-21T01:37:44;101338.63;;;13.62;69.72
5812;BME280;2932;52.400;9.558;2024-02-21T01:40:10;101329.72;;;13.20;69.85
5812;BME280;2932;52.400;9.558;2024-02-21T01:42:39;101332.97;;;13.34;69.68
5812;BME280;2932;52.400;9.558;2024-02-21T01:45:06;101328.44;;;13.66;69.36
5812;BME280;2932;52.400;9.558;2024-02-21T01:47:31;101325.09;;;13.48;69.10
5812;BME280;2932;52.400;9.558;2024-02-21T01:49:56;101321.63;;;13.51;68.89
5812;BME280;2932;52.400;9.558;2024-02-21T01:52:22;101322.88;;;13.66;69.05
5812;BME280;2932;52.400;9.558;2024-02-21T01:54:48;101322.53;;;13.31;69.41
5812;BME280;2932;52.400;9.558;2024-02-21T01:57:13;101329.53;;;12.92;70.13
5812;BME280;2932;52.400;9.558;2024-02-21T01:59:39;101306.44;;;13.24;69.92
5812;BME280;2932;52.400;9.558;2024-02-21T02:02:05;101308.19;;;13.53;69.08
5812;BME280;2932;52.400;9.558;2024-02-21T02:04:30;101311.88;;;13.57;69.44
5812;BME280;2932;52.400;9.558;2024-02-21T02:06:59;101296.25;;;13.53;69.00
5812;BME280;2932;52.400;9.558;2024-02-21T02:09:25;101306.78;;;13.23;69.42
5812;BME280;2932;52.400;9.558;2024-02-21T02:11:50;101295.75;;;12.90;70.14
5812;BME280;2932;52.400;9.558;2024-02-21T02:14:16;101292.88;;;12.98;69.98
5812;BME280;2932;52.400;9.558;2024-02-21T02:16:41;101280.06;;;13.18;69.49
5812;BME280;2932;52.400;9.558;2024-02-21T02:19:06;101285.25;;;13.32;69.59
5812;BME280;2932;52.400;9.558;2024-02-21T02:21:39;101274.59;;;13.46;69.09
5812;BME280;2932;52.400;9.558;2024-02-21T02:24:07;101280.03;;;13.30;69.37
5812;BME280;2932;52.400;9.558;2024-02-21T02:26:32;101279.81;;;13.35;69.40
5812;BME280;2932;52.400;9.558;2024-02-21T02:28:58;101271.47;;;13.23;69.52
5812;BME280;2932;52.400;9.558;2024-02-21T02:31:23;101266.84;;;13.03;69.72
5812;BME280;2932;52.400;9.558;2024-02-21T02:33:48;101268.56;;;13.08;69.83
5812;BME280;2932;52.400;9.558;2024-02-21T02:36:14;101263.66;;;13.65;69.05
5812;BME280;2932;52.400;9.558;2024-02-21T02:38:39;101256.06;;;13.01;69.63
5812;BME280;2932;52.400;9.558;2024-02-21T02:41:04;101252.13;;;13.15;69.51
5812;BME280;2932;52.400;9.558;2024-02-21T02:43:30;101248.66;;;13.06;70.15
5812;BME280;2932;52.400;9.558;2024-02-21T02:45:56;101251.00;;;13.16;69.66
5812;BME280;2932;52.400;9.558;2024-02-21T02:48:21;101241.84;;;13.27;69.69
5812;BME280;2932;52.400;9.558;2024-02-21T02:50:47;101243.78;;;13.51;69.38
5812;BME280;2932;52.400;9.558;2024-02-21T02:53:12;101229.59;;;13.16;69.12
5812;BME280;2932;52.400;9.558;2024-02-21T02:55:38;101238.25;;;13.27;69.71
5812;BME280;2932;52.400;9.558;2024-02-21T02:58:03;101226.91;;;13.20;68.98
5812;BME280;2932;52.400;9.558;2024-02-21T03:00:28;101224.59;;;13.74;68.23
5812;BME280;2932;52.400;9.558;2024-02-21T03:02:54;101216.75;;;13.64;68.29
5812;BME280;2932;52.400;9.558;2024-02-21T03:05:20;101200.59;;;13.82;67.60
5812;BME280;2932;52.400;9.558;2024-02-21T03:07:47;101199.94;;;13.60;68.51
5812;BME280;2932;52.400;9.558;2024-02-21T03:10:13;101185.91;;;13.29;68.83
5812;BME280;2932;52.400;9.558;2024-02-21T03:12:39;101200.25;;;13.31;68.99
5812;BME280;2932;52.400;9.558;2024-02-21T03:15:05;101194.72;;;12.82;69.08
5812;BME280;2932;52.400;9.558;2024-02-21T03:17:32;101160.59;;;13.18;69.01
5812;BME280;2932;52.400;9.558;2024-02-21T03:19:59;101157.88;;;13.34;67.85
5812;BME280;2932;52.400;9.558;2024-02-21T03:22:25;101156.72;;;13.35;67.96
5812;BME280;2932;52.400;9.558;2024-02-21T03:24:50;101162.66;;;13.09;69.10
5812;BME280;2932;52.400;9.558;2024-02-21T03:27:15;101150.63;;;13.57;68.19
5812;BME280;2932;52.400;9.558;2024-02-21T03:29:41;101146.66;;;13.30;68.74
5812;BME280;2932;52.400;9.558;2024-02-21T03:32:06;101134.78;;;13.06;68.48
5812;BME280;2932;52.400;9.558;2024-02-21T03:34:31;101136.00;;;13.32;68.71
5812;BME280;2932;52.400;9.558;2024-02-21T03:36:57;101126.66;;;13.53;67.89
5812;BME280;2932;52.400;9.558;2024-02-21T03:39:22;101132.91;;;13.10;68.81
5812;BME280;2932;52.400;9.558;2024-02-21T03:41:48;101131.25;;;13.33;69.11
5812;BME280;2932;52.400;9.558;2024-02-21T03:44:13;101140.91;;;13.11;69.18
5812;BME280;2932;52.400;9.558;2024-02-21T03:46:38;101125.25;;;13.59;68.20
5812;BME280;2932;52.400;9.558;2024-02-21T03:49:04;101127.50;;;13.69;67.64
5812;BME280;2932;52.400;9.558;2024-02-21T03:51:29;101140.91;;;13.11;68.38
5812;BME280;2932;52.400;9.558;2024-02-21T03:53:54;101142.34;;;13.45;68.01
5812;BME280;2932;52.400;9.558;2024-02-21T03:56:20;101144.09;;;13.38;68.35
5812;BME280;2932;52.400;9.558;2024-02-21T03:58:45;101145.59;;;13.35;69.13
5812;BME280;2932;52.400;9.558;2024-02-21T04:01:10;101177.66;;;13.45;68.59
5812;BME280;2932;52.400;9.558;2024-02-21T04:03:36;101200.50;;;13.14;68.62
5812;BME280;2932;52.400;9.558;2024-02-21T04:06:01;101182.25;;;12.76;69.24
5812;BME280;2932;52.400;9.558;2024-02-21T04:08:26;101192.53;;;13.12;69.48
5812;BME280;2932;52.400;9.558;2024-02-21T04:10:52;101199.13;;;13.08;69.31
5812;BME280;2932;52.400;9.558;2024-02-21T04:13:17;101198.53;;;13.02;69.54
5812;BME280;2932;52.400;9.558;2024-02-21T04:15:42;101200.41;;;12.98;69.07
5812;BME280;2932;52.400;9.558;2024-02-21T04:18:08;101194.03;;;12.85;69.97
5812;BME280;2932;52.400;9.558;2024-02-21T04:20:34;101185.47;;;13.15;69.73
5812;BME280;2932;52.400;9.558;2024-02-21T04:23:00;101179.94;;;13.55;68.71
5812;BME280;2932;52.400;9.558;2024-02-21T04:25:25;101178.81;;;13.72;68.26
5812;BME280;2932;52.400;9.558;2024-02-21T04:27:51;101176.78;;;13.04;69.17
5812;BME280;2932;52.400;9.558;2024-02-21T04:30:17;101192.97;;;13.26;69.17
5812;BME280;2932;52.400;9.558;2024-02-21T04:32:42;101165.56;;;12.88;69.86
5812;BME280;2932;52.400;9.558;2024-02-21T04:35:08;101171.22;;;12.80;70.08
5812;BME280;2932;52.400;9.558;2024-02-21T04:37:33;101173.75;;;13.33;69.22
5812;BME280;2932;52.400;9.558;2024-02-21T04:39:59;101166.47;;;13.05;69.56
5812;BME280;2932;52.400;9.558;2024-02-21T04:42:24;101165.91;;;12.99;69.33
5812;BME280;2932;52.400;9.558;2024-02-21T04:44:50;101172.06;;;13.17;69.27
5812;BME280;2932;52.400;9.558;2024-02-21T04:47:15;101165.31;;;13.06;69.46
5812;BME280;2932;52.400;9.558;2024-02-21T04:49:41;101178.06;;;12.94;69.67
5812;BME280;2932;52.400;9.558;2024-02-21T04:52:06;101185.69;;;13.10;69.57
5812;BME280;2932;52.400;9.558;2024-02-21T04:54:31;101190.78;;;12.83;69.88
5812;BME280;2932;52.400;9.558;2024-02-21T04:56:56;101164.31;;;12.74;71.05
5812;BME280;2932;52.400;9.558;2024-02-21T04:59:22;101190.91;;;12.87;70.75
5812;BME280;2932;52.400;9.558;2024-02-21T05:01:47;101179.56;;;12.92;70.43
5812;BME280;2932;52.400;9.558;2024-02-21T05:04:13;101166.81;;;13.15;70.29
5812;BME280;2932;52.400;9.558;2024-02-21T05:06:39;101177.94;;;13.03;70.08
5812;BME280;2932;52.400;9.558;2024-02-21T05:09:05;101160.00;;;13.00;70.51
5812;BME280;2932;52.400;9.558;2024-02-21T05:11:30;101159.34;;;12.79;71.19
5812;BME280;2932;52.400;9.558;2024-02-21T05:13:56;101151.72;;;12.76;71.11
5812;BME280;2932;52.400;9.558;2024-02-21T05:16:24;101174.59;;;12.85;71.15
5812;BME280;2932;52.400;9.558;2024-02-21T05:18:49;101163.59;;;13.01;70.96
5812;BME280;2932;52.400;9.558;2024-02-21T05:21:15;101157.56;;;13.23;69.64
5812;BME280;2932;52.400;9.558;2024-02-21T05:23:40;101158.84;;;12.89;70.50
5812;BME280;2932;52.400;9.558;2024-02-21T05:26:06;101162.91;;;13.16;70.27
5812;BME280;2932;52.400;9.558;2024-02-21T05:28:31;101152.47;;;13.01;70.26
5812;BME280;2932;52.400;9.558;2024-02-21T05:30:57;101158.34;;;13.36;69.71
5812;BME280;2932;52.400;9.558;2024-02-21T05:33:22;101150.56;;;13.42;69.33
5812;BME280;2932;52.400;9.558;2024-02-21T05:35:48;101139.88;;;13.03;69.66
5812;BME280;2932;52.400;9.558;2024-02-21T05:38:14;101156.03;;;13.26;69.38
5812;BME280;2932;52.400;9.558;2024-02-21T05:40:39;101156.25;;;13.33;69.77
5812;BME280;2932;52.400;9.558;2024-02-21T05:43:05;101164.63;;;13.09;69.97
5812;BME280;2932;52.400;9.558;2024-02-21T05:45:30;101162.47;;;13.54;69.39
5812;BME280;2932;52.400;9.558;2024-02-21T05:47:55;101161.66;;;13.54;68.73
5812;BME280;2932;52.400;9.558;2024-02-21T05:50:22;101156.59;;;13.31;69.34
5812;BME280;2932;52.400;9.558;2024-02-21T05:52:51;101153.06;;;13.19;69.64
5812;BME280;2932;52.400;9.558;2024-02-21T05:55:16;101144.69;;;13.31;69.66
5812;BME280;2932;52.400;9.558;2024-02-21T05:57:41;101139.34;;;13.66;69.09
5812;BME280;2932;52.400;9.558;2024-02-21T06:00:07;101143.22;;;13.09;69.76
5812;BME280;2932;52.400;9.558;2024-02-21T06:02:33;101147.25;;;13.12;69.94
5812;BME280;2932;52.400;9.558;2024-02-21T06:04:58;101148.69;;;13.18;69.97
5812;BME280;2932;52.400;9.558;2024-02-21T06:07:23;101148.06;;;13.24;70.16
5812;BME280;2932;52.400;9.558;2024-02-21T06:09:49;101136.88;;;12.96;70.49
5812;BME280;2932;52.400;9.558;2024-02-21T06:12:14;101138.03;;;12.95;70.70
5812;BME280;2932;52.400;9.558;2024-02-21T06:14:39;101134.91;;;12.97;70.43
5812;BME280;2932;52.400;9.558;2024-02-21T06:17:04;101135.81;;;13.13;70.14
5812;BME280;2932;52.400;9.558;2024-02-21T06:19:30;101134.44;;;13.19;69.94
5812;BME280;2932;52.400;9.558;2024-02-21T06:21:55;101140.06;;;13.23;69.90
5812;BME280;2932;52.400;9.558;2024-02-21T06:24:20;101133.59;;;13.07;70.04
5812;BME280;2932;52.400;9.558;2024-02-21T06:26:49;101135.19;;;13.32;69.68
5812;BME280;2932;52.400;9.558;2024-02-21T06:29:15;101116.59;;;13.48;69.80
5812;BME280;2932;52.400;9.558;2024-02-21T06:31:40;101126.03;;;13.31;69.66
5812;BME280;2932;52.400;9.558;2024-02-21T06:34:06;101125.38;;;13.22;70.13
5812;BME280;2932;52.400;9.558;2024-02-21T06:36:31;101120.25;;;12.60;71.10
5812;BME280;2932;52.400;9.558;2024-02-21T06:38:56;101129.28;;;12.69;71.57
5812;BME280;2932;52.400;9.558;2024-02-21T06:41:22;101122.50;;;13.19;70.26
5812;BME280;2932;52.400;9.558;2024-02-21T06:43:47;101122.94;;;13.21;70.22
5812;BME280;2932;52.400;9.558;2024-02-21T06:46:27;101119.91;;;13.26;69.94
5812;BME280;2932;52.400;9.558;2024-02-21T06:48:54;101121.78;;;13.22;70.91
5812;BME280;2932;52.400;9.558;2024-02-21T06:51:24;101123.09;;;12.88;71.12
5812;BME280;2932;52.400;9.558;2024-02-21T06:53:50;101121.25;;;13.44;70.18
5812;BME280;2932;52.400;9.558;2024-02-21T06:56:15;101123.41;;;13.23;70.37
5812;BME280;2932;52.400;9.558;2024-02-21T06:58:41;101130.97;;;12.86;70.93
5812;BME280;2932;52.400;9.558;2024-02-21T07:01:06;101132.44;;;13.08;70.61
5812;BME280;2932;52.400;9.558;2024-02-21T07:03:32;101133.34;;;13.24;70.53
5812;BME280;2932;52.400;9.558;2024-02-21T07:05:57;101132.81;;;13.18;70.17
5812;BME280;2932;52.400;9.558;2024-02-21T07:08:22;101128.56;;;13.37;69.73
5812;BME280;2932;52.400;9.558;2024-02-21T07:10:48;101135.31;;;13.23;69.80
5812;BME280;2932;52.400;9.558;2024-02-21T07:13:13;101130.78;;;13.31;69.75
5812;BME280;2932;52.400;9.558;2024-02-21T07:15:40;101129.78;;;13.11;70.26
5812;BME280;2932;52.400;9.558;2024-02-21T07:18:06;101130.63;;;12.87;71.23
5812;BME280;2932;52.400;9.558;2024-02-21T07:20:31;101120.19;;;13.09;71.07
5812;BME280;2932;52.400;9.558;2024-02-21T07:22:59;101123.13;;;13.40;70.83
5812;BME280;2932;52.400;9.558;2024-02-21T07:25:24;101116.69;;;13.12;70.99
5812;BME280;2932;52.400;9.558;2024-02-21T07:27:49;101121.00;;;12.97;71.23
5812;BME280;2932;52.400;9.558;2024-02-21T07:30:15;101114.00;;;12.75;72.34
5812;BME280;2932;52.400;9.558;2024-02-21T07:32:40;101123.66;;;13.18;71.18
5812;BME280;2932;52.400;9.558;2024-02-21T07:35:06;101125.75;;;12.84;71.45
5812;BME280;2932;52.400;9.558;2024-02-21T07:37:35;101118.94;;;12.94;70.95
5812;BME280;2932;52.400;9.558;2024-02-21T07:40:01;101123.53;;;13.14;71.43
5812;BME280;2932;52.400;9.558;2024-02-21T07:42:26;101131.53;;;12.91;71.56
5812;BME280;2932;52.400;9.558;2024-02-21T07:44:52;101126.38;;;13.30;71.42
5812;BME280;2932;52.400;9.558;2024-02-21T07:47:17;101134.78;;;13.06;70.61
5812;BME280;2932;52.400;9.558;2024-02-21T07:49:44;101127.94;;;13.15;70.89
5812;BME280;2932;52.400;9.558;2024-02-21T07:52:11;101123.25;;;13.31;70.27
5812;BME280;2932;52.400;9.558;2024-02-21T07:54:36;101127.00;;;13.11;70.50
5812;BME280;2932;52.400;9.558;2024-02-21T07:57:01;101113.34;;;13.58;69.93
5812;BME280;2932;52.400;9.558;2024-02-21T07:59:28;101129.00;;;12.98;69.99
5812;BME280;2932;52.400;9.558;2024-02-21T08:01:56;101115.03;;;13.35;70.16
5812;BME280;2932;52.400;9.558;2024-02-21T08:04:21;101117.22;;;12.65;71.43
5812;BME280;2932;52.400;9.558;2024-02-21T08:06:51;101121.41;;;12.71;71.24
5812;BME280;2932;52.400;9.558;2024-02-21T08:09:18;101133.16;;;13.05;70.87
5812;BME280;2932;52.400;9.558;2024-02-21T08:11:43;101116.19;;;13.34;70.16
5812;BME280;2932;52.400;9.558;2024-02-21T08:14:09;101118.72;;;13.39;69.71
5812;BME280;2932;52.400;9.558;2024-02-21T08:16:34;101122.44;;;13.31;69.48
5812;BME280;2932;52.400;9.558;2024-02-21T08:18:59;101111.34;;;13.59;69.59
5812;BME280;2932;52.400;9.558;2024-02-21T08:21:27;101121.25;;;13.16;69.43
5812;BME280;2932;52.400;9.558;2024-02-21T08:23:52;101115.75;;;13.20;69.71
5812;BME280;2932;52.400;9.558;2024-02-21T08:26:19;101101.88;;;13.20;69.52
5812;BME280;2932;52.400;9.558;2024-02-21T08:28:45;101113.38;;;13.18;69.55
5812;BME280;2932;52.400;9.558;2024-02-21T08:31:10;101105.91;;;13.78;68.53
5812;BME280;2932;52.400;9.558;2024-02-21T08:33:37;101093.22;;;13.49;68.85
5812;BME280;2932;52.400;9.558;2024-02-21T08:36:03;101094.19;;;13.85;68.11
5812;BME280;2932;52.400;9.558;2024-02-21T08:38:28;101095.88;;;13.46;67.87
5812;BME280;2932;52.400;9.558;2024-02-21T08:40:54;101103.53;;;13.64;68.13
5812;BME280;2932;52.400;9.558;2024-02-21T08:43:19;101086.50;;;13.66;68.52
5812;BME280;2932;52.400;9.558;2024-02-21T08:45:44;101090.44;;;13.65;67.99
5812;BME280;2932;52.400;9.558;2024-02-21T08:48:12;101082.00;;;13.89;66.78
5812;BME280;2932;52.400;9.558;2024-02-21T08:50:37;101081.63;;;14.07;66.45
5812;BME280;2932;52.400;9.558;2024-02-21T08:53:03;101074.91;;;14.23;66.09
5812;BME280;2932;52.400;9.558;2024-02-21T08:55:28;101070.75;;;14.01;66.15
5812;BME280;2932;52.400;9.558;2024-02-21T08:57:54;101074.84;;;13.60;66.88
5812;BME280;2932;52.400;9.558;2024-02-21T09:00:19;101079.53;;;13.72;66.85
5812;BME280;2932;52.400;9.558;2024-02-21T09:02:49;101065.31;;;13.18;66.97
5812;BME280;2932;52.400;9.558;2024-02-21T09:05:14;101063.75;;;13.76;66.50
5812;BME280;2932;52.400;9.558;2024-02-21T09:07:40;101058.69;;;13.50;65.99
5812;BME280;2932;52.400;9.558;2024-02-21T09:10:05;101054.34;;;13.96;66.18
5812;BME280;2932;52.400;9.558;2024-02-21T09:12:31;101054.97;;;13.90;65.86
5812;BME280;2932;52.400;9.558;2024-02-21T09:14:56;101052.72;;;14.43;64.88
5812;BME280;2932;52.400;9.558;2024-02-21T09:17:22;101059.28;;;14.03;64.67
5812;BME280;2932;52.400;9.558;2024-02-21T09:19:47;101041.31;;;14.16;64.32
5812;BME280;2932;52.400;9.558;2024-02-21T09:22:15;101058.00;;;13.69;65.06
5812;BME280;2932;52.400;9.558;2024-02-21T09:24:41;101052.28;;;14.09;64.48
5812;BME280;2932;52.400;9.558;2024-02-21T09:27:06;101045.06;;;14.40;63.78
5812;BME280;2932;52.400;9.558;2024-02-21T09:29:32;101044.19;;;14.04;64.52
5812;BME280;2932;52.400;9.558;2024-02-21T09:31:59;101038.09;;;14.30;63.63
5812;BME280;2932;52.400;9.558;2024-02-21T09:34:24;101044.22;;;13.88;63.97
5812;BME280;2932;52.400;9.558;2024-02-21T09:36:49;101040.50;;;14.47;63.54
5812;BME280;2932;52.400;9.558;2024-02-21T09:39:15;101030.16;;;14.83;62.39
5812;BME280;2932;52.400;9.558;2024-02-21T09:41:45;101032.94;;;14.63;62.67
5812;BME280;2932;52.400;9.558;2024-02-21T09:44:13;101036.28;;;14.38;62.14
5812;BME280;2932;52.400;9.558;2024-02-21T09:46:52;101036.06;;;14.62;61.67
5812;BME280;2932;52.400;9.558;2024-02-21T09:51:51;101035.75;;;14.48;62.39
5812;BME280;2932;52.400;9.558;2024-02-21T09:54:18;101026.88;;;14.96;61.22
5812;BME280;2932;52.400;9.558;2024-02-21T09:56:46;101024.53;;;14.79;61.27
5812;BME280;2932;52.400;9.558;2024-02-21T09:59:13;101023.66;;;14.75;61.30
5812;BME280;2932;52.400;9.558;2024-02-21T10:01:39;101048.84;;;14.47;61.29
5812;BME280;2932;52.400;9.558;2024-02-21T10:04:04;101029.00;;;15.22;61.03
5812;BME280;2932;52.400;9.558;2024-02-21T10:06:30;101021.19;;;15.51;60.22
5812;BME280;2932;52.400;9.558;2024-02-21T10:08:55;101021.34;;;15.39;59.34
5812;BME280;2932;52.400;9.558;2024-02-21T10:11:24;101016.63;;;15.00;60.44
5812;BME280;2932;52.400;9.558;2024-02-21T10:13:50;101016.22;;;14.63;60.14
5812;BME280;2932;52.400;9.558;2024-02-21T10:16:15;101020.13;;;14.78;60.77
5812;BME280;2932;52.400;9.558;2024-02-21T10:18:40;101010.97;;;14.78;60.55
5812;BME280;2932;52.400;9.558;2024-02-21T10:21:07;101000.03;;;14.88;60.12
5812;BME280;2932;52.400;9.558;2024-02-21T10:23:46;100989.00;;;15.76;59.45
5812;BME280;2932;52.400;9.558;2024-02-21T10:26:12;100986.06;;;15.27;59.75
5812;BME280;2932;52.400;9.558;2024-02-21T10:28:38;100984.66;;;15.14;59.35
5812;BME280;2932;52.400;9.558;2024-02-21T10:31:10;100979.19;;;15.21;59.54
5812;BME280;2932;52.400;9.558;2024-02-21T10:33:39;100982.69;;;15.37;58.88
5812;BME280;2932;52.400;9.558;2024-02-21T10:36:09;100975.56;;;15.40;58.50
5812;BME280;2932;52.400;9.558;2024-02-21T10:38:38;100963.53;;;15.78;58.17
5812;BME280;2932;52.400;9.558;2024-02-21T10:41:07;100967.22;;;15.40;58.06
5812;BME280;2932;52.400;9.558;2024-02-21T10:43:38;100970.66;;;15.33;58.92
5812;BME280;2932;52.400;9.558;2024-02-21T10:46:06;100960.88;;;14.81;60.03
5812;BME280;2932;52.400;9.558;2024-02-21T10:48:41;100950.91;;;14.61;59.61
5812;BME280;2932;52.400;9.558;2024-02-21T10:51:12;100961.63;;;14.78;59.38
5812;BME280;2932;52.400;9.558;2024-02-21T10:56:32;100955.38;;;14.85;59.31
5812;BME280;2932;52.400;9.558;2024-02-21T10:59:05;100951.44;;;14.66;59.38
5812;BME280;2932;52.400;9.558;2024-02-21T11:01:31;100950.75;;;14.92;59.55
5812;BME280;2932;52.400;9.558;2024-02-21T11:04:05;100951.06;;;14.68;59.27
5812;BME280;2932;52.400;9.558;2024-02-21T11:06:31;100949.09;;;14.68;58.65
5812;BME280;2932;52.400;9.558;2024-02-21T11:11:40;100925.47;;;14.82;58.46
5812;BME280;2932;52.400;9.558;2024-02-21T11:14:18;100902.28;;;14.97;58.02
5812;BME280;2932;52.400;9.558;2024-02-21T11:16:44;100919.69;;;14.90;58.61
5812;BME280;2932;52.400;9.558;2024-02-21T11:19:19;100910.19;;;15.37;57.67
5812;BME280;2932;52.400;9.558;2024-02-21T11:21:45;100911.38;;;15.36;57.88
5812;BME280;2932;52.400;9.558;2024-02-21T11:24:10;100906.41;;;15.03;57.88
5812;BME280;2932;52.400;9.558;2024-02-21T11:26:40;100911.00;;;15.15;57.83
5812;BME280;2932;52.400;9.558;2024-02-21T11:29:07;100899.72;;;15.53;57.32
5812;BME280;2932;52.400;9.558;2024-02-21T11:31:43;100909.31;;;14.68;58.01
5812;BME280;2932;52.400;9.558;2024-02-21T11:34:12;100899.91;;;14.57;57.66
5812;BME280;2932;52.400;9.558;2024-02-21T11:36:51;100892.91;;;15.05;57.82
5812;BME280;2932;52.400;9.558;2024-02-21T11:39:23;100890.31;;;14.74;57.44
5812;BME280;2932;52.400;9.558;2024-02-21T11:42:18;100879.34;;;15.26;57.12
5812;BME280;2932;52.400;9.558;2024-02-21T11:44:45;100881.13;;;14.92;56.99
5812;BME280;2932;52.400;9.558;2024-02-21T11:47:10;100879.94;;;14.93;57.10
5812;BME280;2932;52.400;9.558;2024-02-21T11:49:46;100874.50;;;15.00;56.95
5812;BME280;2932;52.400;9.558;2024-02-21T11:52:14;100863.19;;;15.13;56.56
5812;BME280;2932;52.400;9.558;2024-02-21T11:54:40;100865.56;;;14.91;56.26
5812;BME280;2932;52.400;9.558;2024-02-21T11:57:06;100875.78;;;14.84;56.23
5812;BME280;2932;52.400;9.558;2024-02-21T11:59:32;100839.03;;;14.55;56.69
5812;BME280;2932;52.400;9.558;2024-02-21T12:02:01;100845.19;;;14.87;56.54
5812;BME280;2932;52.400;9.558;2024-02-21T12:04:28;100839.91;;;14.82;56.17
5812;BME280;2932;52.400;9.558;2024-02-21T12:06:56;100836.00;;;15.06;56.04
5812;BME280;2932;52.400;9.558;2024-02-21T12:09:23;100819.38;;;15.36;55.39
5812;BME280;2932;52.400;9.558;2024-02-21T12:11:59;100820.56;;;14.89;55.57
5812;BME280;2932;52.400;9.558;2024-02-21T12:14:29;100815.81;;;15.13;55.71
5812;BME280;2932;52.400;9.558;2024-02-21T12:16:55;100805.84;;;15.12;55.64
5812;BME280;2932;52.400;9.558;2024-02-21T12:19:21;100810.38;;;15.46;55.46
5812;BME280;2932;52.400;9.558;2024-02-21T12:21:48;100803.69;;;15.51;55.00
5812;BME280;2932;52.400;9.558;2024-02-21T12:24:16;100796.41;;;15.69;54.62
5812;BME280;2932;52.400;9.558;2024-02-21T12:26:42;100803.66;;;16.04;53.73
5812;BME280;2932;52.400;9.558;2024-02-21T12:29:08;100801.06;;;15.88;54.22
5812;BME280;2932;52.400;9.558;2024-02-21T12:31:39;100793.38;;;16.11;54.05
5812;BME280;2932;52.400;9.558;2024-02-21T12:34:05;100792.53;;;16.74;52.61
5812;BME280;2932;52.400;9.558;2024-02-21T12:36:31;100804.78;;;16.29;53.52
5812;BME280;2932;52.400;9.558;2024-02-21T12:38:57;100785.75;;;16.08;54.53
5812;BME280;2932;52.400;9.558;2024-02-21T12:41:22;100790.72;;;15.62;54.87
5812;BME280;2932;52.400;9.558;2024-02-21T12:43:47;100779.88;;;15.83;54.54
5812;BME280;2932;52.400;9.558;2024-02-21T12:46:13;100786.78;;;15.93;54.86
5812;BME280;2932;52.400;9.558;2024-02-21T12:48:38;100796.63;;;15.57;55.07
5812;BME280;2932;52.400;9.558;2024-02-21T12:51:05;100788.94;;;16.40;54.00
5812;BME280;2932;52.400;9.558;2024-02-21T12:53:30;100794.50;;;15.50;55.01
5812;BME280;2932;52.400;9.558;2024-02-21T12:55:55;100818.50;;;15.81;54.22
5812;BME280;2932;52.400;9.558;2024-02-21T12:58:21;100780.66;;;15.31;55.10
5812;BME280;2932;52.400;9.558;2024-02-21T13:00:50;100766.38;;;15.59;55.85
5812;BME280;2932;52.400;9.558;2024-02-21T13:03:15;100761.13;;;15.84;54.92
5812;BME280;2932;52.400;9.558;2024-02-21T13:05:40;100749.13;;;15.80;54.62
5812;BME280;2932;52.400;9.558;2024-02-21T13:08:06;100753.97;;;15.30;55.86
5812;BME280;2932;52.400;9.558;2024-02-21T13:10:32;100742.00;;;15.29;55.67
5812;BME280;2932;52.400;9.558;2024-02-21T13:13:00;100739.44;;;15.17;56.69